Time;durP1;ratioP1;P1;durP2;ratioP2;P2;SDS_P1;SDS_P2;PMS_P1;PMS_P2;Temp;Humidity;BMP_temperature;BMP_pressure;BME280_temperature;BME280_humidity;BME280_pressure;Samples;Min_cycle;Max_cycle;Signal;HPM_P1;HPM_P2
2023/10/25 00:00:55;;;;;;;18.83;4.43;;;6.70;99.90;;;;;;4911741;28;20263;-66
2023/10/25 00:03:20;;;;;;;13.67;4.70;;;6.70;99.90;;;;;;4911102;28;20208;-67
2023/10/25 00:05:46;;;;;;;14.90;5.10;;;6.60;99.90;;;;;;4911598;28;20176;-66
2023/10/25 00:08:11;;;;;;;7.93;4.23;;;6.60;99.90;;;;;;4911636;28;20204;-66
2023/10/25 00:10:37;;;;;;;12.80;4.60;;;6.70;99.90;;;;;;4911623;28;20302;-65
2023/10/25 00:13:03;;;;;;;8.70;4.40;;;6.60;99.90;;;;;;4905989;28;20208;-67
2023/10/25 00:15:29;;;;;;;9.97;4.23;;;6.60;99.90;;;;;;4907441;28;20242;-67
2023/10/25 00:17:54;;;;;;;8.87;4.53;;;6.60;99.90;;;;;;4911427;28;20330;-67
2023/10/25 00:20:20;;;;;;;17.33;4.90;;;6.60;99.90;;;;;;4911446;28;20195;-65
2023/10/25 00:22:45;;;;;;;9.97;4.20;;;6.60;99.90;;;;;;4911318;28;20184;-66
2023/10/25 00:25:11;;;;;;;8.07;4.47;;;6.60;99.90;;;;;;4910232;28;20601;-66
2023/10/25 00:27:36;;;;;;;9.20;4.73;;;6.60;99.90;;;;;;4911592;28;20558;-67
2023/10/25 00:30:04;;;;;;;8.07;4.27;;;6.60;99.90;;;;;;4911437;28;20542;-66
2023/10/25 00:32:29;;;;;;;13.97;4.30;;;6.60;99.90;;;;;;4911322;28;20188;-66
2023/10/25 00:34:55;;;;;;;8.33;4.50;;;6.60;99.90;;;;;;4909454;28;20212;-69
2023/10/25 00:37:20;;;;;;;11.67;4.83;;;6.60;99.90;;;;;;4911255;28;20263;-66
2023/10/25 00:39:46;;;;;;;6.10;3.80;;;6.60;99.90;;;;;;4911330;28;20371;-67
2023/10/25 00:42:11;;;;;;;9.17;4.00;;;6.60;99.90;;;;;;4910266;28;20239;-67
2023/10/25 00:44:37;;;;;;;8.00;4.30;;;6.60;99.90;;;;;;4910436;28;20218;-67
2023/10/25 00:47:03;;;;;;;27.63;4.67;;;6.60;99.90;;;;;;4911192;28;20183;-66
2023/10/25 00:49:29;;;;;;;25.43;4.60;;;6.60;99.90;;;;;;4910946;28;20231;-66
2023/10/25 00:51:55;;;;;;;14.37;3.87;;;6.60;99.90;;;;;;4911444;28;20180;-66
2023/10/25 00:54:22;;;;;;;12.70;4.17;;;6.50;99.90;;;;;;4910524;28;20628;-66
2023/10/25 00:56:49;;;;;;;10.17;4.70;;;6.60;99.90;;;;;;4911111;28;20561;-67
2023/10/25 00:59:17;;;;;;;8.27;4.40;;;6.60;99.90;;;;;;4911150;28;20200;-66
2023/10/25 01:01:44;;;;;;;18.53;4.00;;;6.50;99.90;;;;;;4911682;28;20192;-68
2023/10/25 01:04:09;;;;;;;12.27;4.20;;;6.50;99.90;;;;;;4910631;28;20196;-66
2023/10/25 01:06:35;;;;;;;11.17;4.20;;;6.50;99.90;;;;;;4910063;28;20193;-67
2023/10/25 01:09:01;;;;;;;7.43;4.17;;;6.50;99.90;;;;;;4911369;28;20249;-66
2023/10/25 01:11:26;;;;;;;7.33;4.10;;;6.50;99.90;;;;;;4911330;28;20267;-66
2023/10/25 01:13:52;;;;;;;5.93;3.50;;;6.50;99.90;;;;;;4910816;28;20282;-66
2023/10/25 01:16:19;;;;;;;9.03;4.13;;;6.50;99.90;;;;;;4911371;28;20187;-68
2023/10/25 01:18:44;;;;;;;7.67;4.03;;;6.50;99.90;;;;;;4911266;28;20219;-66
2023/10/25 01:21:10;;;;;;;6.23;3.60;;;6.50;99.90;;;;;;4911494;28;20181;-68
2023/10/25 01:23:35;;;;;;;9.50;4.13;;;6.50;99.90;;;;;;4910067;28;20191;-68
2023/10/25 01:26:01;;;;;;;18.03;4.43;;;6.50;99.90;;;;;;4910697;28;20216;-66
2023/10/25 01:28:26;;;;;;;8.93;4.00;;;6.50;99.90;;;;;;4910492;28;20215;-66
2023/10/25 01:30:52;;;;;;;6.40;3.87;;;6.50;99.90;;;;;;4910628;28;20191;-65
2023/10/25 01:33:17;;;;;;;10.10;4.53;;;6.60;99.90;;;;;;4908903;28;20198;-68
2023/10/25 01:35:43;;;;;;;18.03;4.03;;;6.50;99.90;;;;;;4910175;28;20546;-66
2023/10/25 01:38:08;;;;;;;6.60;3.87;;;6.50;99.90;;;;;;4913962;28;20207;-66
2023/10/25 01:40:34;;;;;;;8.53;3.80;;;6.60;99.90;;;;;;4913725;28;20687;-67
2023/10/25 01:42:59;;;;;;;9.03;3.80;;;6.60;99.90;;;;;;4904259;28;20279;-67
2023/10/25 01:45:27;;;;;;;19.93;4.40;;;6.60;99.90;;;;;;4913443;28;20198;-67
2023/10/25 01:47:53;;;;;;;7.33;3.80;;;6.60;99.90;;;;;;4913526;28;20286;-67
2023/10/25 01:50:19;;;;;;;7.87;4.00;;;6.60;99.90;;;;;;4913680;28;20183;-67
2023/10/25 01:52:45;;;;;;;6.83;3.80;;;6.60;99.90;;;;;;4913392;28;20191;-70
2023/10/25 01:55:10;;;;;;;9.53;4.07;;;6.60;99.90;;;;;;4913167;28;20239;-67
2023/10/25 01:57:36;;;;;;;13.40;4.53;;;6.60;99.90;;;;;;4913321;28;20657;-68
2023/10/25 02:00:03;;;;;;;8.30;4.10;;;6.60;99.90;;;;;;4913503;28;20211;-66
2023/10/25 02:02:29;;;;;;;8.37;4.03;;;6.60;99.90;;;;;;4913371;28;20267;-66
2023/10/25 02:04:54;;;;;;;9.00;3.70;;;6.60;99.90;;;;;;4913076;28;20773;-67
2023/10/25 02:07:20;;;;;;;6.60;3.53;;;6.50;99.90;;;;;;4913585;28;20572;-66
2023/10/25 02:09:45;;;;;;;7.60;4.00;;;6.50;99.90;;;;;;4913386;28;20196;-67
2023/10/25 02:12:11;;;;;;;11.30;4.20;;;6.50;99.90;;;;;;4913377;28;20279;-66
2023/10/25 02:14:36;;;;;;;7.50;4.07;;;6.50;99.90;;;;;;4904633;28;20216;-67
2023/10/25 02:17:02;;;;;;;18.97;4.47;;;6.50;99.90;;;;;;4913165;28;20188;-65
2023/10/25 02:19:28;;;;;;;18.43;4.70;;;6.60;99.90;;;;;;4913163;28;20207;-67
2023/10/25 02:21:54;;;;;;;14.13;4.87;;;6.50;99.90;;;;;;4913388;28;20266;-65
2023/10/25 02:24:19;;;;;;;7.67;4.00;;;6.50;99.90;;;;;;4912744;28;20259;-67
2023/10/25 02:26:45;;;;;;;9.20;4.20;;;6.50;99.90;;;;;;4913099;28;20207;-67
2023/10/25 02:29:11;;;;;;;10.70;4.80;;;6.50;99.90;;;;;;4911720;28;20688;-67
2023/10/25 02:31:37;;;;;;;8.77;4.47;;;6.60;99.90;;;;;;4912900;28;20215;-67
2023/10/25 02:34:03;;;;;;;30.87;5.93;;;6.60;99.90;;;;;;4904738;28;20651;-67
2023/10/25 02:36:30;;;;;;;10.67;4.53;;;6.60;99.90;;;;;;4912967;28;20674;-67
2023/10/25 02:38:56;;;;;;;21.90;5.30;;;6.60;99.90;;;;;;4913109;28;20242;-67
2023/10/25 02:41:22;;;;;;;14.97;5.43;;;6.60;99.90;;;;;;4912988;28;20176;-66
2023/10/25 02:43:51;;;;;;;10.50;4.40;;;6.60;99.90;;;;;;4912114;28;20176;-66
2023/10/25 02:46:17;;;;;;;11.97;4.60;;;6.60;99.90;;;;;;4912774;28;20188;-69
2023/10/25 02:48:43;;;;;;;10.77;5.20;;;6.60;99.90;;;;;;4911702;28;20282;-66
2023/10/25 02:51:08;;;;;;;9.73;4.80;;;6.50;99.90;;;;;;4912939;28;20728;-66
2023/10/25 02:53:34;;;;;;;8.80;4.73;;;6.50;99.90;;;;;;4912128;28;20663;-66
2023/10/25 02:56:02;;;;;;;10.20;4.83;;;6.50;99.90;;;;;;4905169;28;20188;-66
2023/10/25 02:58:28;;;;;;;13.33;5.00;;;6.50;99.90;;;;;;4912605;28;20228;-69
2023/10/25 03:00:56;;;;;;;9.93;4.90;;;6.50;99.90;;;;;;4913369;28;20180;-67
2023/10/25 03:03:22;;;;;;;16.67;4.77;;;6.50;99.90;;;;;;4912219;28;20555;-68
2023/10/25 03:05:47;;;;;;;12.20;5.17;;;6.50;99.90;;;;;;4912897;28;20835;-66
2023/10/25 03:08:13;;;;;;;13.37;5.17;;;6.50;99.90;;;;;;4912844;28;20319;-67
2023/10/25 03:10:38;;;;;;;10.00;4.50;;;6.50;99.90;;;;;;4912691;28;20219;-67
2023/10/25 03:13:04;;;;;;;8.87;4.50;;;6.40;99.90;;;;;;4911851;28;20184;-67
2023/10/25 03:15:30;;;;;;;23.33;5.23;;;6.40;99.90;;;;;;4911787;28;20211;-67
2023/10/25 03:17:55;;;;;;;11.93;4.93;;;6.40;99.90;;;;;;4912514;28;20331;-68
2023/10/25 03:20:21;;;;;;;12.13;5.00;;;6.40;99.90;;;;;;4912667;28;20181;-67
2023/10/25 03:22:46;;;;;;;17.93;5.50;;;6.50;99.90;;;;;;4909484;28;20185;-66
2023/10/25 03:25:12;;;;;;;12.03;5.33;;;6.40;99.90;;;;;;4906857;28;20200;-67
2023/10/25 03:27:37;;;;;;;14.93;5.10;;;6.40;99.90;;;;;;4912106;28;20192;-66
2023/10/25 03:30:04;;;;;;;7.73;4.30;;;6.40;99.90;;;;;;4945083;28;20188;-66
2023/10/25 03:32:30;;;;;;;11.73;5.20;;;6.40;99.90;;;;;;4912213;28;20306;-68
2023/10/25 03:34:55;;;;;;;9.27;4.83;;;6.50;99.90;;;;;;4911648;28;20231;-67
2023/10/25 03:37:21;;;;;;;16.40;5.67;;;6.50;99.90;;;;;;4911910;28;20207;-68
2023/10/25 03:39:46;;;;;;;12.00;4.63;;;6.50;99.90;;;;;;4911895;28;20195;-67
2023/10/25 03:42:12;;;;;;;11.93;4.77;;;6.50;99.90;;;;;;4912020;28;20267;-67
2023/10/25 03:44:37;;;;;;;8.50;4.37;;;6.60;99.90;;;;;;4911346;28;20223;-67
2023/10/25 03:47:03;;;;;;;22.60;4.67;;;6.50;99.90;;;;;;4911971;28;20242;-67
2023/10/25 03:49:29;;;;;;;12.27;4.57;;;6.50;99.90;;;;;;4911718;28;20269;-67
2023/10/25 03:51:55;;;;;;;19.80;3.73;;;6.50;99.90;;;;;;4910828;28;20195;-67
2023/10/25 03:54:20;;;;;;;9.90;4.70;;;6.50;99.90;;;;;;4911245;28;20208;-67
2023/10/25 03:56:46;;;;;;;12.53;4.97;;;6.50;99.90;;;;;;4911827;28;20188;-68
2023/10/25 03:59:11;;;;;;;9.17;4.43;;;6.60;99.90;;;;;;4911560;28;20625;-66
2023/10/25 04:01:38;;;;;;;8.87;4.40;;;6.60;99.90;;;;;;4911799;28;20282;-66
2023/10/25 04:04:04;;;;;;;11.13;5.10;;;6.60;99.90;;;;;;4911285;28;20188;-66
2023/10/25 04:06:29;;;;;;;11.20;4.60;;;6.60;99.90;;;;;;4911551;28;20218;-67
2023/10/25 04:08:55;;;;;;;11.97;4.87;;;6.60;99.90;;;;;;4911882;28;20211;-67
2023/10/25 04:11:21;;;;;;;8.33;4.33;;;6.70;99.90;;;;;;4911746;28;20542;-68
2023/10/25 04:13:46;;;;;;;10.63;4.30;;;6.70;99.90;;;;;;4910863;28;20224;-67
2023/10/25 04:16:12;;;;;;;10.63;4.67;;;6.70;99.90;;;;;;4911635;28;20187;-68
2023/10/25 04:18:38;;;;;;;10.40;4.53;;;6.70;99.90;;;;;;4911390;28;20391;-67
2023/10/25 04:21:09;;;;;;;9.30;5.00;;;6.70;99.90;;;;;;4911552;28;20652;-66
2023/10/25 04:23:34;;;;;;;9.30;4.83;;;6.70;99.90;;;;;;4909926;28;20266;-66
2023/10/25 04:26:12;;;;;;;10.47;4.27;;;6.70;99.90;;;;;;4904799;28;20656;-66
2023/10/25 04:28:40;;;;;;;15.20;4.53;;;6.70;99.90;;;;;;4903509;28;20631;-66
2023/10/25 04:31:10;;;;;;;15.23;4.60;;;6.70;99.90;;;;;;4911439;28;20183;-66
2023/10/25 04:33:39;;;;;;;8.07;3.90;;;6.60;99.90;;;;;;4909321;28;20198;-65
2023/10/25 04:36:05;;;;;;;6.77;3.83;;;6.60;99.90;;;;;;4911436;28;20254;-64
2023/10/25 04:38:31;;;;;;;7.33;4.00;;;6.60;99.90;;;;;;4911091;28;20196;-66
2023/10/25 04:40:57;;;;;;;9.20;3.73;;;6.70;99.90;;;;;;4911592;28;20194;-68
2023/10/25 04:43:23;;;;;;;6.53;3.57;;;6.70;99.90;;;;;;4910831;28;20588;-66
2023/10/25 04:45:48;;;;;;;11.83;3.70;;;6.70;99.90;;;;;;4911206;28;20271;-66
2023/10/25 04:48:14;;;;;;;7.77;3.90;;;6.60;99.90;;;;;;4911200;28;20224;-65
2023/10/25 04:50:40;;;;;;;9.47;3.60;;;6.70;99.90;;;;;;4911217;28;20572;-66
2023/10/25 04:53:06;;;;;;;7.17;3.47;;;6.70;99.90;;;;;;4910791;28;20192;-66
2023/10/25 04:55:34;;;;;;;7.17;4.00;;;6.70;99.90;;;;;;4911147;28;20227;-68
2023/10/25 04:58:00;;;;;;;9.13;4.00;;;6.70;99.90;;;;;;4910974;28;20208;-67
2023/10/25 05:00:27;;;;;;;9.70;4.27;;;6.70;99.90;;;;;;4910938;28;20302;-66
2023/10/25 05:02:53;;;;;;;9.33;4.00;;;6.70;99.90;;;;;;4903169;28;20191;-67
2023/10/25 05:05:18;;;;;;;7.70;3.90;;;6.70;99.90;;;;;;4910630;28;20195;-67
2023/10/25 05:07:44;;;;;;;8.53;3.67;;;6.70;99.90;;;;;;4910800;28;20216;-66
2023/10/25 05:10:12;;;;;;;9.07;3.80;;;6.80;99.90;;;;;;4944024;28;20232;-66
2023/10/25 05:12:44;;;;;;;8.20;3.60;;;6.80;99.90;;;;;;4914212;28;20188;-70
2023/10/25 05:15:11;;;;;;;6.47;3.63;;;6.80;99.90;;;;;;4913475;28;20219;-68
2023/10/25 05:17:38;;;;;;;8.83;4.37;;;6.80;99.90;;;;;;4913910;28;20234;-66
2023/10/25 05:20:05;;;;;;;8.40;4.60;;;6.90;99.90;;;;;;4914057;28;20621;-66
2023/10/25 05:22:34;;;;;;;7.23;3.63;;;6.90;99.90;;;;;;4913925;28;20188;-67
2023/10/25 05:25:01;;;;;;;9.70;4.50;;;7.00;99.90;;;;;;4912193;28;20187;-67
2023/10/25 05:27:26;;;;;;;8.60;4.37;;;7.00;99.90;;;;;;4913953;28;20189;-66
2023/10/25 05:29:52;;;;;;;12.17;5.33;;;7.00;99.90;;;;;;4910626;28;20184;-66
2023/10/25 05:32:21;;;;;;;15.23;6.30;;;7.10;99.90;;;;;;4909259;28;20202;-67
2023/10/25 05:34:48;;;;;;;22.00;8.67;;;7.10;99.90;;;;;;4913180;28;20282;-66
2023/10/25 05:37:15;;;;;;;19.83;5.87;;;7.10;99.90;;;;;;4914157;28;20217;-67
2023/10/25 05:39:42;;;;;;;11.37;5.20;;;7.10;99.90;;;;;;4913687;28;20196;-66
2023/10/25 05:42:08;;;;;;;11.73;5.57;;;7.10;99.90;;;;;;4913828;28;20192;-65
2023/10/25 05:44:34;;;;;;;18.17;11.57;;;7.10;99.90;;;;;;4913032;28;20218;-66
2023/10/25 05:47:00;;;;;;;19.93;14.30;;;7.20;99.90;;;;;;4913713;28;20735;-66
2023/10/25 05:49:25;;;;;;;13.63;7.40;;;7.20;99.90;;;;;;4913626;28;20227;-68
2023/10/25 05:51:51;;;;;;;12.73;7.83;;;7.20;99.90;;;;;;4913570;28;20238;-66
2023/10/25 05:54:17;;;;;;;11.70;5.93;;;7.20;99.90;;;;;;4913195;28;20226;-66
2023/10/25 05:56:43;;;;;;;15.07;7.70;;;7.30;99.90;;;;;;4913582;28;20673;-66
2023/10/25 05:59:09;;;;;;;17.23;7.10;;;7.30;99.90;;;;;;4913790;28;20242;-68
2023/10/25 06:01:42;;;;;;;23.87;9.40;;;7.30;99.90;;;;;;4913261;28;20665;-66
2023/10/25 06:04:09;;;;;;;21.13;8.00;;;7.30;99.90;;;;;;4912926;28;20191;-67
2023/10/25 06:06:36;;;;;;;14.27;6.60;;;7.30;99.90;;;;;;4905599;28;20291;-67
2023/10/25 06:09:02;;;;;;;18.90;7.90;;;7.30;99.90;;;;;;4917777;28;20211;-66
2023/10/25 06:11:27;;;;;;;14.43;5.83;;;7.40;99.90;;;;;;4913467;28;20278;-67
2023/10/25 06:13:53;;;;;;;21.97;8.93;;;7.40;99.90;;;;;;4904969;28;20242;-66
2023/10/25 06:16:19;;;;;;;16.27;6.97;;;7.40;99.90;;;;;;4913500;28;20192;-66
2023/10/25 06:18:45;;;;;;;19.90;6.27;;;7.40;99.90;;;;;;4912685;28;20200;-66
2023/10/25 06:21:10;;;;;;;25.60;8.07;;;7.40;99.90;;;;;;4911495;28;20180;-65
2023/10/25 06:23:36;;;;;;;14.23;6.77;;;7.40;99.90;;;;;;4910368;28;20604;-66
2023/10/25 06:26:03;;;;;;;13.93;6.50;;;7.50;99.90;;;;;;4912053;28;20194;-66
2023/10/25 06:28:29;;;;;;;13.50;6.07;;;7.40;99.90;;;;;;4911572;28;20219;-67
2023/10/25 06:30:55;;;;;;;11.87;5.40;;;7.40;99.90;;;;;;4912371;28;20188;-67
2023/10/25 06:33:20;;;;;;;13.97;5.67;;;7.50;99.90;;;;;;4911971;28;20566;-66
2023/10/25 06:35:46;;;;;;;13.53;5.77;;;7.50;99.90;;;;;;4912291;28;20590;-66
2023/10/25 06:38:13;;;;;;;18.33;6.87;;;7.40;99.90;;;;;;4912343;28;20196;-65
2023/10/25 06:40:39;;;;;;;22.20;8.33;;;7.40;99.90;;;;;;4911443;28;20183;-66
2023/10/25 06:43:05;;;;;;;25.93;10.80;;;7.40;99.90;;;;;;4911710;28;20188;-67
2023/10/25 06:45:30;;;;;;;17.73;7.50;;;7.50;99.90;;;;;;4911907;28;20187;-66
2023/10/25 06:47:56;;;;;;;18.13;7.23;;;7.50;99.90;;;;;;4904651;28;20215;-67
2023/10/25 06:50:25;;;;;;;19.53;7.37;;;7.50;99.90;;;;;;4912394;28;20238;-66
2023/10/25 06:52:51;;;;;;;15.27;7.07;;;7.50;99.90;;;;;;4912002;28;20192;-67
2023/10/25 06:55:17;;;;;;;16.17;6.93;;;7.50;99.90;;;;;;4911628;28;20287;-67
2023/10/25 06:57:42;;;;;;;18.33;7.03;;;7.60;99.90;;;;;;4911915;28;20254;-66
2023/10/25 07:00:09;;;;;;;15.17;6.90;;;7.60;99.90;;;;;;4912059;28;20542;-65
2023/10/25 07:02:56;;;;;;;15.87;6.67;;;7.60;99.90;;;;;;4915791;28;20180;-65
2023/10/25 07:05:25;;;;;;;16.07;7.03;;;7.70;99.90;;;;;;4958908;28;20177;-68
2023/10/25 07:07:52;;;;;;;15.90;6.83;;;7.70;99.90;;;;;;4913416;28;20204;-65
2023/10/25 07:10:19;;;;;;;19.43;7.77;;;7.80;99.90;;;;;;4911900;28;20564;-66
2023/10/25 07:12:45;;;;;;;21.53;9.10;;;7.80;99.90;;;;;;4912063;28;20595;-66
2023/10/25 07:15:11;;;;;;;20.00;8.33;;;7.70;99.90;;;;;;4911358;28;20600;-66
2023/10/25 07:17:37;;;;;;;19.37;7.83;;;7.90;99.90;;;;;;4902864;28;20191;-66
2023/10/25 07:20:05;;;;;;;20.67;8.90;;;7.90;99.90;;;;;;4911833;28;20179;-66
2023/10/25 07:22:30;;;;;;;24.50;9.77;;;7.90;99.90;;;;;;4912040;28;20188;-67
2023/10/25 07:24:56;;;;;;;18.20;7.57;;;8.10;99.90;;;;;;4911156;28;20555;-68
2023/10/25 07:27:21;;;;;;;18.40;8.43;;;8.00;99.90;;;;;;4911441;28;20212;-65
2023/10/25 07:29:48;;;;;;;16.60;7.10;;;8.20;99.90;;;;;;4911592;28;20195;-66
2023/10/25 07:32:13;;;;;;;16.53;7.00;;;8.20;99.90;;;;;;4911615;28;20195;-65
2023/10/25 07:34:40;;;;;;;21.33;8.17;;;8.20;99.90;;;;;;4910405;28;20635;-67
2023/10/25 07:37:05;;;;;;;19.77;7.70;;;8.20;99.90;;;;;;4911650;28;20180;-66
2023/10/25 07:39:31;;;;;;;17.63;7.10;;;8.20;99.90;;;;;;4911243;28;20207;-66
2023/10/25 07:41:56;;;;;;;16.90;6.53;;;8.20;99.90;;;;;;4911444;28;20184;-67
2023/10/25 07:44:22;;;;;;;21.50;7.30;;;8.20;99.90;;;;;;4910842;28;20302;-68
2023/10/25 07:46:48;;;;;;;18.17;6.93;;;8.20;99.90;;;;;;4911437;28;20199;-65
2023/10/25 07:49:13;;;;;;;16.77;5.17;;;8.20;99.90;;;;;;4911338;28;20227;-66
2023/10/25 07:51:39;;;;;;;13.67;5.07;;;8.20;99.90;;;;;;4911241;28;20203;-66
2023/10/25 07:54:05;;;;;;;12.70;5.17;;;8.30;99.90;;;;;;4910702;28;20212;-67
2023/10/25 07:56:30;;;;;;;12.47;5.33;;;8.20;99.90;;;;;;4910942;28;20238;-67
2023/10/25 07:58:57;;;;;;;12.27;5.83;;;8.30;99.90;;;;;;4911209;28;20564;-66
2023/10/25 08:01:23;;;;;;;13.97;4.97;;;8.30;99.90;;;;;;4911082;28;20668;-66
2023/10/25 08:03:48;;;;;;;15.67;6.10;;;8.30;99.90;;;;;;4910634;28;20198;-68
2023/10/25 08:06:14;;;;;;;14.63;6.13;;;8.30;99.90;;;;;;4911247;28;20188;-66
2023/10/25 08:08:39;;;;;;;13.23;5.83;;;8.30;99.90;;;;;;4911054;28;20295;-65
2023/10/25 08:11:09;;;;;;;13.07;6.43;;;8.30;99.90;;;;;;4911034;28;20234;-66
2023/10/25 08:13:35;;;;;;;14.37;5.97;;;8.20;99.90;;;;;;4910302;28;20279;-66
2023/10/25 08:16:02;;;;;;;15.20;7.40;;;8.20;99.90;;;;;;4910675;28;20487;-66
2023/10/25 08:18:29;;;;;;;14.73;6.90;;;8.30;99.90;;;;;;4910690;28;20207;-67
2023/10/25 08:20:55;;;;;;;15.17;7.27;;;8.40;99.90;;;;;;4890743;28;20625;-66
2023/10/25 08:23:21;;;;;;;13.77;6.67;;;8.70;99.90;;;;;;4905689;28;20180;-67
2023/10/25 08:25:46;;;;;;;18.67;8.00;;;8.80;99.90;;;;;;4902869;28;20188;-66
2023/10/25 08:28:12;;;;;;;15.20;6.40;;;8.80;99.90;;;;;;4909363;28;20216;-67
2023/10/25 08:30:37;;;;;;;16.60;7.43;;;8.80;99.90;;;;;;4908235;28;20611;-68
2023/10/25 08:33:03;;;;;;;20.20;7.40;;;8.90;99.90;;;;;;4910222;28;20187;-66
2023/10/25 08:35:28;;;;;;;13.27;6.70;;;9.00;99.90;;;;;;4907092;28;20222;-66
2023/10/25 08:37:54;;;;;;;16.40;7.40;;;9.10;99.90;;;;;;4910513;28;20227;-67
2023/10/25 08:40:20;;;;;;;18.07;8.10;;;9.20;99.90;;;;;;4910621;28;20179;-67
2023/10/25 08:42:46;;;;;;;18.27;7.57;;;9.30;99.90;;;;;;4910513;28;20230;-67
2023/10/25 08:45:14;;;;;;;18.07;7.70;;;9.30;99.90;;;;;;4910449;28;20563;-66
2023/10/25 08:47:40;;;;;;;13.30;6.57;;;9.30;99.90;;;;;;4912351;28;20695;-67
2023/10/25 08:50:06;;;;;;;16.03;8.20;;;9.30;99.90;;;;;;4914222;28;20291;-67
2023/10/25 08:52:36;;;;;;;34.27;13.37;;;9.50;99.90;;;;;;4913906;28;20272;-67
2023/10/25 08:55:01;;;;;;;17.60;8.40;;;9.60;99.90;;;;;;4912858;28;20204;-67
2023/10/25 08:57:29;;;;;;;17.27;7.77;;;9.70;99.90;;;;;;4913641;28;20346;-67
2023/10/25 08:59:55;;;;;;;17.67;8.73;;;9.70;99.90;;;;;;4913801;28;20707;-67
2023/10/25 09:02:20;;;;;;;16.50;8.13;;;9.60;99.90;;;;;;4913792;28;20188;-67
2023/10/25 09:05:02;;;;;;;16.83;8.23;;;9.50;99.90;;;;;;4913091;28;20296;-67
2023/10/25 09:07:32;;;;;;;17.77;8.33;;;9.50;99.90;;;;;;4913742;28;20202;-67
2023/10/25 09:09:58;;;;;;;19.40;9.07;;;9.60;99.90;;;;;;4913839;28;20183;-66
2023/10/25 09:12:24;;;;;;;19.83;8.97;;;9.70;99.90;;;;;;4913406;28;20235;-67
2023/10/25 09:14:52;;;;;;;20.00;8.07;;;9.70;99.90;;;;;;4913516;28;20308;-67
2023/10/25 09:17:17;;;;;;;21.43;8.80;;;9.80;99.90;;;;;;4908549;28;20186;-65
2023/10/25 09:19:52;;;;;;;19.00;8.63;;;9.90;99.90;;;;;;4913510;28;20284;-65
2023/10/25 09:22:22;;;;;;;19.13;9.70;;;10.00;99.90;;;;;;4913780;28;20188;-64
2023/10/25 09:24:49;;;;;;;27.73;10.10;;;10.00;99.90;;;;;;4912817;28;20636;-67
2023/10/25 09:27:14;;;;;;;21.77;9.27;;;10.10;99.90;;;;;;4913545;28;20250;-65
2023/10/25 09:29:40;;;;;;;19.00;8.77;;;10.00;99.90;;;;;;4913807;28;20697;-66
2023/10/25 09:32:09;;;;;;;20.70;8.07;;;10.00;99.90;;;;;;4913452;28;20775;-65
2023/10/25 09:34:36;;;;;;;16.00;7.90;;;10.00;99.90;;;;;;4911976;28;20208;-65
2023/10/25 09:37:04;;;;;;;16.60;7.67;;;10.20;99.90;;;;;;4906458;28;20176;-65
2023/10/25 09:39:32;;;;;;;23.63;8.60;;;10.30;99.90;;;;;;4945675;28;20681;-64
2023/10/25 09:42:02;;;;;;;18.03;8.40;;;10.30;99.90;;;;;;4905766;28;20211;-65
2023/10/25 09:44:34;;;;;;;21.77;9.00;;;10.30;99.90;;;;;;4912655;28;20496;-65
2023/10/25 09:47:00;;;;;;;19.77;8.27;;;10.40;99.90;;;;;;4913109;28;20180;-65
2023/10/25 09:49:30;;;;;;;17.33;7.80;;;10.40;99.90;;;;;;4912916;28;20702;-65
2023/10/25 09:52:28;;;;;;;18.30;7.73;;;10.20;99.90;;;;;;4912016;28;20237;-64
2023/10/25 09:55:14;;;;;;;15.43;7.10;;;10.10;99.90;;;;;;4921263;28;20220;-65
2023/10/25 09:57:40;;;;;;;18.67;7.80;;;10.20;99.90;;;;;;4912718;28;20222;-65
2023/10/25 10:00:08;;;;;;;14.80;7.20;;;10.20;99.90;;;;;;4905232;28;20199;-64
2023/10/25 10:02:53;;;;;;;18.00;7.30;;;10.30;99.90;;;;;;4912880;28;20550;-64
2023/10/25 10:05:27;;;;;;;15.63;7.70;;;10.40;99.90;;;;;;4912455;28;20179;-65
2023/10/25 10:08:11;;;;;;;14.23;7.70;;;10.40;99.90;;;;;;4905065;28;20720;-64
2023/10/25 10:10:44;;;;;;;16.63;8.00;;;10.40;99.90;;;;;;4912900;28;20184;-64
2023/10/25 10:13:17;;;;;;;14.90;7.73;;;10.50;99.90;;;;;;4912130;28;20184;-64
2023/10/25 10:16:04;;;;;;;14.27;8.17;;;10.50;99.90;;;;;;4912605;28;20537;-64
2023/10/25 10:18:34;;;;;;;14.87;7.67;;;10.50;99.90;;;;;;4904975;28;20290;-64
2023/10/25 10:21:01;;;;;;;15.73;7.60;;;10.50;99.90;;;;;;4905355;28;20574;-64
2023/10/25 10:23:51;;;;;;;14.70;7.03;;;10.40;99.90;;;;;;4912174;28;20184;-64
2023/10/25 10:26:47;;;;;;;16.03;7.27;;;10.30;99.90;;;;;;4906177;28;20257;-66
2023/10/25 10:29:31;;;;;;;10.70;6.70;;;10.40;99.90;;;;;;4912807;28;20662;-64
2023/10/25 10:31:58;;;;;;;15.43;7.90;;;10.40;99.90;;;;;;4904698;28;20212;-65
2023/10/25 10:34:41;;;;;;;13.83;6.63;;;10.30;99.90;;;;;;4905132;28;20200;-64
2023/10/25 10:37:08;;;;;;;17.13;7.47;;;10.30;99.90;;;;;;4902602;28;20183;-63
2023/10/25 10:39:35;;;;;;;13.70;7.60;;;10.40;99.90;;;;;;4912234;28;20290;-64
2023/10/25 10:42:01;;;;;;;14.93;7.17;;;10.30;99.90;;;;;;4912540;28;20172;-63
2023/10/25 10:44:34;;;;;;;11.40;7.50;;;10.20;99.90;;;;;;4903927;28;20199;-63
2023/10/25 10:47:00;;;;;;;12.10;6.83;;;10.20;99.90;;;;;;4904883;28;20191;-66
2023/10/25 10:49:30;;;;;;;14.03;7.33;;;10.20;99.90;;;;;;4912034;28;20219;-65
2023/10/25 10:51:56;;;;;;;13.43;7.47;;;10.20;99.90;;;;;;4912117;28;20266;-65
2023/10/25 10:54:22;;;;;;;13.90;8.03;;;10.20;99.90;;;;;;4911611;28;20204;-67
2023/10/25 10:56:48;;;;;;;16.80;8.00;;;10.10;99.90;;;;;;4912035;28;20632;-66
2023/10/25 10:59:13;;;;;;;15.23;7.60;;;10.10;99.90;;;;;;4904431;28;20215;-68
2023/10/25 11:01:39;;;;;;;12.70;6.97;;;10.10;99.90;;;;;;4911966;28;20242;-66
2023/10/25 11:04:05;;;;;;;11.47;7.30;;;10.00;99.90;;;;;;4911480;28;20275;-65
2023/10/25 11:06:31;;;;;;;15.20;7.77;;;10.00;99.90;;;;;;4912002;28;20192;-67
2023/10/25 11:08:58;;;;;;;13.10;7.50;;;10.00;99.90;;;;;;4903503;28;20222;-65
2023/10/25 11:11:24;;;;;;;14.03;7.93;;;10.00;99.90;;;;;;4912075;28;20270;-66
2023/10/25 11:13:50;;;;;;;12.53;7.50;;;10.00;99.90;;;;;;4911224;28;20288;-66
2023/10/25 11:16:16;;;;;;;14.70;7.60;;;10.00;99.90;;;;;;4911880;28;20207;-67
2023/10/25 11:18:42;;;;;;;13.90;8.03;;;10.00;99.90;;;;;;4911482;28;20631;-65
2023/10/25 11:21:08;;;;;;;15.63;7.30;;;10.00;99.90;;;;;;4911771;28;20607;-65
2023/10/25 11:23:33;;;;;;;15.00;7.77;;;10.00;99.90;;;;;;4910943;28;20215;-65
2023/10/25 11:25:59;;;;;;;12.17;6.70;;;10.10;99.90;;;;;;4910470;28;20210;-66
2023/10/25 11:28:26;;;;;;;15.87;6.80;;;10.10;99.90;;;;;;4911703;28;20228;-66
2023/10/25 11:30:52;;;;;;;15.97;6.70;;;10.10;99.90;;;;;;4910307;28;20207;-65
2023/10/25 11:33:18;;;;;;;12.30;5.90;;;10.10;99.90;;;;;;4911064;28;20266;-65
2023/10/25 11:35:44;;;;;;;11.93;6.60;;;10.10;99.90;;;;;;4911696;28;20303;-65
2023/10/25 11:38:10;;;;;;;13.03;6.80;;;10.00;99.90;;;;;;4911510;28;20235;-67
2023/10/25 11:40:42;;;;;;;9.53;5.27;;;10.10;99.90;;;;;;4911497;28;20188;-66
2023/10/25 11:43:08;;;;;;;7.83;5.23;;;10.10;99.90;;;;;;4910873;28;20588;-66
2023/10/25 11:45:36;;;;;;;9.30;5.00;;;10.10;99.90;;;;;;4911220;28;20206;-66
2023/10/25 11:48:03;;;;;;;8.43;5.00;;;10.10;99.90;;;;;;4910374;28;20303;-67
2023/10/25 11:50:28;;;;;;;10.63;4.80;;;10.10;99.90;;;;;;4896010;28;20271;-67
2023/10/25 11:52:54;;;;;;;10.83;5.73;;;10.10;99.90;;;;;;4910364;28;20192;-64
2023/10/25 11:55:19;;;;;;;11.07;4.43;;;10.10;99.90;;;;;;4910536;28;20262;-66
2023/10/25 11:57:45;;;;;;;7.73;4.60;;;10.10;99.90;;;;;;4910629;28;20203;-67
2023/10/25 12:00:11;;;;;;;10.73;4.47;;;10.10;99.90;;;;;;4911434;28;20587;-66
2023/10/25 12:02:37;;;;;;;9.30;4.40;;;10.10;99.90;;;;;;4909573;28;20192;-66
2023/10/25 12:05:03;;;;;;;6.47;4.03;;;10.10;99.90;;;;;;4910839;28;20184;-66
2023/10/25 12:07:31;;;;;;;11.43;4.67;;;10.20;99.90;;;;;;4911268;28;20191;-68
2023/10/25 12:09:57;;;;;;;6.70;3.53;;;10.20;99.90;;;;;;4911076;28;20190;-66
2023/10/25 12:12:23;;;;;;;5.13;3.97;;;10.20;99.90;;;;;;4911280;28;20398;-66
2023/10/25 12:14:49;;;;;;;7.83;4.07;;;10.30;99.90;;;;;;4910195;28;20692;-66
2023/10/25 12:17:15;;;;;;;7.97;3.53;;;10.30;99.90;;;;;;4910882;28;20187;-67
2023/10/25 12:19:40;;;;;;;5.00;3.03;;;10.40;99.90;;;;;;4910889;28;20203;-66
2023/10/25 12:22:08;;;;;;;6.63;3.33;;;10.50;99.90;;;;;;4911374;28;20270;-66
2023/10/25 12:24:35;;;;;;;5.77;3.50;;;10.50;99.90;;;;;;4910292;28;20641;-66
2023/10/25 12:27:01;;;;;;;5.80;3.43;;;10.50;99.90;;;;;;4911068;28;20653;-66
2023/10/25 12:29:27;;;;;;;6.03;3.33;;;10.60;99.90;;;;;;4910896;28;20211;-67
2023/10/25 12:31:53;;;;;;;5.00;3.07;;;10.70;99.90;;;;;;4902782;28;20203;-66
2023/10/25 12:34:19;;;;;;;7.60;3.60;;;10.70;99.90;;;;;;4910197;28;20561;-66
2023/10/25 12:36:44;;;;;;;6.03;3.07;;;10.70;99.90;;;;;;4910783;28;20184;-66
2023/10/25 12:39:10;;;;;;;5.90;3.30;;;10.70;99.90;;;;;;4910724;28;20204;-66
2023/10/25 12:41:35;;;;;;;6.43;3.20;;;10.60;99.90;;;;;;4909794;28;20188;-66
2023/10/25 12:44:05;;;;;;;6.83;3.57;;;10.60;99.90;;;;;;4910215;28;20737;-67
2023/10/25 12:46:32;;;;;;;6.43;3.10;;;10.70;99.90;;;;;;4910690;28;20242;-66